Time;durP1;ratioP1;P1;durP2;ratioP2;P2;SDS_P1;SDS_P2;PMS_P1;PMS_P2;Temp;Humidity;BMP_temperature;BMP_pressure;BME280_temperature;BME280_humidity;BME280_pressure;Samples;Min_cycle;Max_cycle;Signal;HPM_P1;HPM_P2
2023/05/05 00:02:26;;;;;;;4.60;1.60;;;;;;;16.83;57.83;101968.04;110194;1274;22198;-48
2023/05/05 00:04:53;;;;;;;4.10;1.70;;;;;;;16.85;58.04;101972.89;110525;1275;22440;-48
2023/05/05 00:07:20;;;;;;;2.70;1.70;;;;;;;16.87;58.05;101974.74;110540;1269;22365;-49
2023/05/05 00:09:47;;;;;;;2.50;1.60;;;;;;;16.92;57.60;101970.40;110563;1268;22355;-48
2023/05/05 00:12:14;;;;;;;1.80;1.70;;;;;;;16.94;57.34;101968.23;110570;1272;22113;-48
2023/05/05 00:14:41;;;;;;;2.30;1.80;;;;;;;16.93;57.20;101967.55;110546;1271;22484;-48
2023/05/05 00:17:08;;;;;;;4.30;1.50;;;;;;;16.94;56.70;101963.33;110548;1272;22359;-48
2023/05/05 00:19:35;;;;;;;1.80;1.30;;;;;;;16.94;56.17;101962.09;110531;1268;22231;-47
2023/05/05 00:22:02;;;;;;;3.30;1.40;;;;;;;16.93;55.92;101962.30;110551;1267;23038;-48
2023/05/05 00:24:30;;;;;;;3.30;1.70;;;;;;;16.92;55.80;101961.27;110546;1269;22238;-48
2023/05/05 00:26:57;;;;;;;2.50;1.60;;;;;;;16.93;56.02;101961.77;110541;1274;22328;-47
2023/05/05 00:29:24;;;;;;;2.30;1.50;;;;;;;16.95;56.44;101957.16;110538;1269;22188;-48
2023/05/05 00:31:51;;;;;;;1.30;1.20;;;;;;;16.95;56.16;101956.28;110551;1267;22416;-47
2023/05/05 00:34:18;;;;;;;3.00;1.60;;;;;;;16.94;55.72;101957.35;110504;1274;22530;-48
2023/05/05 00:36:45;;;;;;;1.60;1.50;;;;;;;16.94;55.92;101955.95;110185;1269;22757;-47
2023/05/05 00:39:13;;;;;;;3.30;1.60;;;;;;;16.94;56.13;101955.60;110557;1269;22450;-48
2023/05/05 00:41:40;;;;;;;2.10;1.70;;;;;;;16.95;56.08;101957.52;110548;1272;22165;-48
2023/05/05 00:44:07;;;;;;;2.80;1.60;;;;;;;16.96;56.18;101953.81;110489;1270;22305;-48
2023/05/05 00:46:34;;;;;;;1.90;1.60;;;;;;;16.95;56.02;101958.04;110412;1271;22379;-48
2023/05/05 00:49:01;;;;;;;1.90;1.40;;;;;;;16.94;55.94;101954.21;110543;1272;22162;-47
2023/05/05 00:51:28;;;;;;;1.60;1.30;;;;;;;16.91;55.92;101952.71;110544;1272;23519;-48
2023/05/05 00:53:56;;;;;;;1.70;1.60;;;;;;;16.87;55.77;101943.73;110383;1273;22127;-48
2023/05/05 00:56:26;;;;;;;1.50;1.30;;;;;;;16.83;55.65;101939.64;110278;1275;22198;-48
2023/05/05 00:58:53;;;;;;;1.60;1.30;;;;;;;16.81;55.79;101938.46;110572;1266;23020;-48
2023/05/05 01:01:20;;;;;;;1.50;1.40;;;;;;;16.78;55.68;101934.88;110504;1267;22421;-48
2023/05/05 01:03:47;;;;;;;3.20;1.40;;;;;;;16.75;55.56;101934.80;110515;1275;22087;-47
2023/05/05 01:06:33;;;;;;;3.80;1.30;;;;;;;16.72;55.53;101931.00;110416;1273;22314;-47
2023/05/05 01:09:15;;;;;;;1.90;1.30;;;;;;;16.72;55.55;101930.48;110481;1274;23135;-47
2023/05/05 01:12:00;;;;;;;2.50;1.30;;;;;;;16.73;55.12;101932.41;110525;1275;22156;-47
2023/05/05 01:14:34;;;;;;;1.50;1.30;;;;;;;16.72;54.62;101932.77;110194;1274;22230;-47
2023/05/05 01:17:06;;;;;;;1.50;1.20;;;;;;;16.71;54.23;101930.69;110283;1271;22383;-48
2023/05/05 01:19:48;;;;;;;2.20;1.40;;;;;;;16.71;54.29;101929.30;110261;1274;22101;-48
2023/05/05 01:22:17;;;;;;;2.30;1.40;;;;;;;16.70;54.10;101928.27;110428;1273;22257;-48
2023/05/05 01:25:02;;;;;;;2.20;1.10;;;;;;;16.68;53.90;101928.52;110500;1274;22445;-47
2023/05/05 01:27:54;;;;;;;1.50;1.30;;;;;;;16.67;53.73;101930.65;110498;1275;22274;-47
2023/05/05 01:30:30;;;;;;;1.70;1.40;;;;;;;16.66;54.20;101928.91;110180;1273;22109;-47
2023/05/05 01:33:00;;;;;;;2.80;1.50;;;;;;;16.66;54.71;101927.17;110395;1272;22832;-47
2023/05/05 01:35:35;;;;;;;1.30;1.10;;;;;;;16.66;54.95;101925.06;110528;1272;22435;-47
2023/05/05 01:38:05;;;;;;;2.70;1.40;;;;;;;16.66;55.51;101927.16;110595;1270;22184;-47
2023/05/05 01:40:43;;;;;;;2.10;1.80;;;;;;;16.67;56.06;101924.67;110436;1274;22816;-48
2023/05/05 01:43:11;;;;;;;2.00;1.60;;;;;;;16.65;56.14;101922.28;110353;1273;22150;-47
2023/05/05 01:45:39;;;;;;;2.10;1.90;;;;;;;16.63;56.02;101923.59;110111;1275;22326;-48
2023/05/05 01:48:06;;;;;;;2.70;1.90;;;;;;;16.60;56.15;101926.63;110510;1269;22282;-48
2023/05/05 01:50:33;;;;;;;2.10;1.80;;;;;;;16.60;56.34;101924.36;110234;1271;22934;-47
2023/05/05 01:53:00;;;;;;;2.70;2.00;;;;;;;16.59;56.56;101924.21;110514;1275;22883;-48
2023/05/05 01:55:27;;;;;;;5.50;2.20;;;;;;;16.60;56.31;101916.67;110483;1269;22284;-48
2023/05/05 01:57:54;;;;;;;3.30;1.80;;;;;;;16.57;56.05;101913.41;110285;1274;23092;-48
2023/05/05 02:00:23;;;;;;;2.70;1.90;;;;;;;16.55;55.86;101917.15;110081;1274;23049;-48
2023/05/05 02:02:50;;;;;;;2.70;2.00;;;;;;;16.54;55.64;101914.03;110395;1267;22368;-48
2023/05/05 02:05:20;;;;;;;3.20;2.00;;;;;;;16.51;55.39;101918.66;110396;1275;22095;-47
2023/05/05 02:07:48;;;;;;;2.70;2.10;;;;;;;16.49;55.54;101915.55;110529;1275;22154;-48
2023/05/05 02:10:15;;;;;;;2.70;2.10;;;;;;;16.48;55.63;101913.46;110321;1274;22978;-48
2023/05/05 02:12:42;;;;;;;3.70;2.80;;;;;;;16.46;55.81;101914.23;110272;1269;22401;-49
2023/05/05 02:15:10;;;;;;;2.60;2.20;;;;;;;16.43;56.10;101917.63;110389;1274;22203;-48
2023/05/05 02:17:40;;;;;;;3.60;2.00;;;;;;;16.42;56.31;101917.66;110236;1267;23039;-47
2023/05/05 02:20:09;;;;;;;3.50;2.60;;;;;;;16.42;56.27;101918.35;110319;1274;22281;-48
2023/05/05 02:22:36;;;;;;;2.70;2.10;;;;;;;16.42;56.36;101915.20;110203;1275;22274;-47
2023/05/05 02:25:04;;;;;;;2.50;2.10;;;;;;;16.42;56.14;101916.76;110234;1273;23104;-48
2023/05/05 02:27:32;;;;;;;3.10;1.90;;;;;;;16.41;55.99;101917.67;110314;1273;22278;-48
2023/05/05 02:30:03;;;;;;;2.30;1.70;;;;;;;16.40;55.60;101917.36;110580;1267;23084;-47
2023/05/05 02:32:35;;;;;;;3.10;2.10;;;;;;;16.38;55.57;101912.14;110381;1275;23025;-47
2023/05/05 02:35:11;;;;;;;2.80;2.10;;;;;;;16.36;55.52;101914.66;110496;1274;22410;-48
2023/05/05 02:37:42;;;;;;;3.00;2.10;;;;;;;16.35;55.64;101917.33;110168;1273;22342;-47
2023/05/05 02:40:10;;;;;;;3.90;1.70;;;;;;;16.34;55.74;101913.67;110417;1271;23006;-47
2023/05/05 02:42:40;;;;;;;3.20;2.30;;;;;;;16.34;55.65;101911.74;110262;1270;22881;-47
2023/05/05 02:45:13;;;;;;;;;;;;;;;16.32;55.44;101910.23;110534;1271;22530;-48
2023/05/05 02:47:42;;;;;;;2.30;1.80;;;;;;;16.29;55.08;101910.64;110088;1274;23027;-47
2023/05/05 02:50:10;;;;;;;2.20;1.90;;;;;;;16.26;55.03;101904.42;110519;1267;22125;-48
2023/05/05 02:52:40;;;;;;;2.70;1.80;;;;;;;16.23;55.00;101905.89;110520;1275;22901;-48
2023/05/05 02:55:08;;;;;;;2.40;1.70;;;;;;;16.21;54.95;101906.66;110287;1273;22349;-48
2023/05/05 02:57:46;;;;;;;2.50;1.80;;;;;;;16.21;54.89;101904.20;110185;1277;22175;-48
2023/05/05 03:00:18;;;;;;;4.10;2.00;;;;;;;16.20;55.05;101905.30;110100;1271;23221;-47
2023/05/05 03:03:04;;;;;;;;;;;;;;;16.19;55.08;101905.14;109990;1277;22489;-47
2023/05/05 03:05:39;;;;;;;2.00;1.80;;;;;;;16.17;55.23;101903.27;110119;1270;22913;-48
2023/05/05 03:08:09;;;;;;;2.90;2.30;;;;;;;16.15;55.31;101905.08;109995;1278;23118;-48
2023/05/05 03:10:45;;;;;;;4.00;2.20;;;;;;;16.14;55.70;101907.36;110023;1278;22372;-48
2023/05/05 03:13:12;;;;;;;2.90;2.30;;;;;;;16.15;55.99;101901.23;110065;1270;23145;-48
2023/05/05 03:15:48;;;;;;;3.50;2.20;;;;;;;16.14;56.27;101902.29;109902;1277;23006;-48
2023/05/05 03:18:17;;;;;;;2.70;1.90;;;;;;;16.13;56.46;101897.60;110114;1278;22457;-48
2023/05/05 03:20:47;;;;;;;3.90;2.70;;;;;;;16.14;56.86;101896.17;110042;1271;22187;-48
2023/05/05 03:23:19;;;;;;;5.40;2.20;;;;;;;16.15;57.32;101894.92;109959;1271;22164;-48
2023/05/05 03:25:47;;;;;;;4.40;2.60;;;;;;;16.16;57.58;101893.46;110014;1279;22978;-48
2023/05/05 03:28:35;;;;;;;2.80;2.40;;;;;;;16.20;57.74;101897.92;110189;1275;22194;-48
2023/05/05 03:31:07;;;;;;;2.30;2.00;;;;;;;16.23;57.80;101898.71;110492;1275;22279;-48
2023/05/05 03:33:35;;;;;;;3.20;2.60;;;;;;;16.28;57.67;101903.32;110176;1273;22911;-47
2023/05/05 03:36:02;;;;;;;5.70;2.30;;;;;;;16.32;57.21;101900.77;110309;1270;22410;-48
2023/05/05 03:38:29;;;;;;;2.90;2.10;;;;;;;16.39;57.43;101899.36;110336;1270;22305;-47
2023/05/05 03:41:00;;;;;;;2.30;2.10;;;;;;;16.49;57.52;101894.70;110391;1276;22088;-48
2023/05/05 03:43:27;;;;;;;2.90;1.90;;;;;;;16.59;57.07;101894.96;110533;1270;22856;-47
2023/05/05 03:45:54;;;;;;;2.30;2.10;;;;;;;16.64;57.23;101889.73;110259;1274;22086;-48
2023/05/05 03:48:22;;;;;;;2.60;2.10;;;;;;;16.66;57.30;101889.84;110451;1269;22426;-48
2023/05/05 03:50:49;;;;;;;4.40;2.90;;;;;;;16.68;57.33;101892.60;110410;1275;22119;-48
2023/05/05 03:53:17;;;;;;;3.20;2.80;;;;;;;16.70;57.46;101890.42;110266;1274;139135;-47
2023/05/05 03:55:44;;;;;;;4.50;2.60;;;;;;;16.71;57.87;101889.19;110321;1268;23152;-48
2023/05/05 03:58:11;;;;;;;2.30;2.10;;;;;;;16.73;57.94;101890.34;110490;1274;22138;-47
2023/05/05 04:00:38;;;;;;;2.10;1.90;;;;;;;16.74;57.49;101890.66;110375;1274;22153;-48
2023/05/05 04:03:05;;;;;;;5.70;2.50;;;;;;;16.73;57.24;101890.32;110400;1270;22159;-48
2023/05/05 04:05:33;;;;;;;3.40;2.30;;;;;;;16.73;57.20;101891.94;110465;1274;22432;-47
2023/05/05 04:08:00;;;;;;;3.00;2.30;;;;;;;16.74;57.28;101893.66;110477;1274;22860;-48
2023/05/05 04:10:27;;;;;;;3.40;2.30;;;;;;;16.76;57.16;101890.08;110569;1271;22389;-48
2023/05/05 04:12:54;;;;;;;3.20;2.20;;;;;;;16.79;57.13;101894.55;110470;1269;22128;-48
2023/05/05 04:15:21;;;;;;;5.10;2.70;;;;;;;16.83;57.16;101893.91;110369;1267;23330;-48
2023/05/05 04:17:49;;;;;;;5.20;2.80;;;;;;;16.85;56.89;101896.13;110485;1274;22877;-48
2023/05/05 04:20:16;;;;;;;3.10;2.60;;;;;;;16.87;56.87;101895.52;110306;1273;22139;-48
2023/05/05 04:22:43;;;;;;;5.40;3.00;;;;;;;16.90;56.81;101895.08;110254;1272;22403;-48
2023/05/05 04:25:10;;;;;;;4.30;3.00;;;;;;;16.92;56.66;101891.52;110235;1273;22283;-48
2023/05/05 04:27:37;;;;;;;5.10;3.10;;;;;;;16.94;56.55;101896.37;110404;1270;22999;-48
2023/05/05 04:30:06;;;;;;;5.20;3.00;;;;;;;16.92;56.11;101892.75;110321;1270;22368;-47
2023/05/05 04:32:34;;;;;;;4.80;2.20;;;;;;;16.91;56.37;101893.49;110494;1274;22393;-48
2023/05/05 04:35:01;;;;;;;3.50;2.60;;;;;;;16.90;56.38;101890.72;110350;1266;22285;-48
2023/05/05 04:37:28;;;;;;;3.00;2.20;;;;;;;16.91;56.24;101886.48;110406;1275;22470;-47
2023/05/05 04:39:56;;;;;;;4.20;3.10;;;;;;;16.92;55.74;101886.59;110367;1270;22964;-47
2023/05/05 04:42:23;;;;;;;4.50;2.70;;;;;;;16.93;55.64;101881.52;110399;1274;22906;-47
2023/05/05 04:44:50;;;;;;;3.20;2.40;;;;;;;16.94;55.54;101882.16;110168;1267;22378;-48
2023/05/05 04:47:17;;;;;;;4.10;2.80;;;;;;;16.98;55.64;101883.64;110407;1274;22414;-49
2023/05/05 04:49:44;;;;;;;3.00;2.50;;;;;;;16.99;55.42;101878.86;110497;1268;22124;-48
2023/05/05 04:52:14;;;;;;;2.60;2.40;;;;;;;17.00;55.14;101879.02;110474;1269;22190;-47
2023/05/05 04:54:41;;;;;;;2.50;2.30;;;;;;;17.02;55.21;101881.41;110509;1273;22269;-47
2023/05/05 04:57:08;;;;;;;5.70;3.10;;;;;;;17.06;55.38;101881.29;110352;1275;22164;-47
2023/05/05 04:59:35;;;;;;;3.00;2.70;;;;;;;17.09;55.29;101882.58;110486;1268;22369;-47
2023/05/05 05:02:02;;;;;;;3.40;3.10;;;;;;;17.13;55.08;101884.91;110458;1268;22373;-47
2023/05/05 05:04:30;;;;;;;3.20;2.90;;;;;;;17.16;55.22;101880.98;110466;1274;22163;-48
2023/05/05 05:06:56;;;;;;;5.50;2.60;;;;;;;17.19;55.21;101879.64;110301;1270;22414;-47
2023/05/05 05:09:25;;;;;;;4.70;3.30;;;;;;;17.22;54.96;101877.63;110423;1274;22424;-47
2023/05/05 05:11:52;;;;;;;4.50;3.10;;;;;;;17.23;54.69;101882.31;110473;1274;22242;-47
2023/05/05 05:14:20;;;;;;;5.70;3.50;;;;;;;17.24;54.53;101881.42;110425;1269;22424;-48
2023/05/05 05:16:50;;;;;;;6.60;3.60;;;;;;;17.27;54.49;101880.27;110511;1268;22381;-48
2023/05/05 05:19:18;;;;;;;;;;;;;;;17.31;54.54;101877.31;110383;1274;22410;-47
2023/05/05 05:21:45;;;;;;;3.40;2.90;;;;;;;17.35;54.47;101871.58;110504;1268;22350;-47
2023/05/05 05:24:12;;;;;;;6.20;3.00;;;;;;;17.38;54.52;101872.71;110392;1274;22901;-47
2023/05/05 05:26:39;;;;;;;3.90;3.20;;;;;;;17.43;54.32;101874.33;110319;1274;22394;-48
2023/05/05 05:29:06;;;;;;;4.30;3.30;;;;;;;17.56;54.14;101874.80;110400;1274;22397;-48
2023/05/05 05:31:35;;;;;;;5.60;3.00;;;;;;;17.88;53.95;101881.24;110474;1267;22561;-48
2023/05/05 05:34:02;;;;;;;4.10;2.80;;;;;;;18.36;53.39;101884.99;110480;1274;22937;-48
2023/05/05 05:36:30;;;;;;;4.90;2.60;;;;;;;18.92;52.23;101887.48;110406;1270;23020;-48
2023/05/05 05:38:57;;;;;;;3.50;3.10;;;;;;;19.48;51.24;101881.05;110120;1275;23103;-48
2023/05/05 05:41:24;;;;;;;6.40;3.20;;;;;;;20.06;49.40;101883.70;110466;1274;22352;-48
2023/05/05 05:43:53;;;;;;;5.50;2.90;;;;;;;20.49;48.02;101880.73;110133;1274;22110;-48
2023/05/05 05:46:20;;;;;;;4.20;2.70;;;;;;;20.80;46.99;101882.46;110352;1275;22835;-47
2023/05/05 05:48:47;;;;;;;4.60;2.70;;;;;;;21.00;46.28;101881.73;110407;1270;22262;-48
2023/05/05 05:51:14;;;;;;;5.50;3.00;;;;;;;21.15;45.82;101882.98;110375;1275;22368;-48
2023/05/05 05:53:41;;;;;;;4.50;3.10;;;;;;;21.28;45.28;101879.88;110386;1274;23109;-48
2023/05/05 05:56:09;;;;;;;3.80;3.20;;;;;;;21.39;44.80;101878.98;110422;1273;22105;-48
2023/05/05 05:58:36;;;;;;;6.00;3.30;;;;;;;21.50;44.53;101878.81;110354;1274;22285;-48
2023/05/05 06:01:04;;;;;;;4.10;2.40;;;;;;;21.66;44.34;101883.09;110357;1274;22294;-47
2023/05/05 06:03:31;;;;;;;4.50;3.20;;;;;;;21.89;44.10;101881.58;110450;1275;22307;-48
2023/05/05 06:05:58;;;;;;;5.70;3.50;;;;;;;22.14;43.41;101881.19;110283;1272;23063;-48
2023/05/05 06:08:25;;;;;;;3.30;3.00;;;;;;;22.23;43.15;101876.63;110330;1275;22825;-48
2023/05/05 06:10:53;;;;;;;5.40;3.00;;;;;;;22.26;43.20;101875.77;110349;1270;22182;-48
2023/05/05 06:13:20;;;;;;;3.70;3.00;;;;;;;22.38;42.98;101875.51;110120;1273;22353;-48
2023/05/05 06:15:49;;;;;;;4.70;2.70;;;;;;;22.54;42.84;101873.73;110263;1271;22409;-46
2023/05/05 06:18:16;;;;;;;6.10;3.60;;;;;;;22.69;42.31;101871.23;110268;1269;22456;-46
2023/05/05 06:20:44;;;;;;;3.50;2.80;;;;;;;22.65;41.94;101871.77;110283;1269;22440;-48
2023/05/05 06:23:12;;;;;;;4.30;3.00;;;;;;;22.57;42.42;101870.37;110092;1278;22300;-48
2023/05/05 06:25:42;;;;;;;5.60;3.20;;;;;;;22.51;42.31;101868.92;110080;1273;22999;-48
2023/05/05 06:28:09;;;;;;;3.30;2.80;;;;;;;22.36;42.49;101867.98;110069;1273;22319;-49
2023/05/05 06:30:36;;;;;;;7.60;3.40;;;;;;;22.23;42.98;101863.38;110106;1271;22439;-48
2023/05/05 06:33:03;;;;;;;5.70;2.90;;;;;;;22.21;43.14;101859.59;110041;1274;22226;-49
2023/05/05 06:35:31;;;;;;;3.30;2.80;;;;;;;22.22;43.07;101859.23;109915;1277;22175;-49
2023/05/05 06:37:58;;;;;;;4.00;2.90;;;;;;;22.25;43.25;101861.54;110095;1278;22786;-49
2023/05/05 06:40:25;;;;;;;5.10;3.30;;;;;;;22.37;42.96;101857.67;110070;1273;22158;-49
2023/05/05 06:42:52;;;;;;;5.30;3.00;;;;;;;22.52;42.77;101856.00;110019;1274;23054;-49
2023/05/05 06:45:22;;;;;;;3.50;2.60;;;;;;;22.61;42.79;101859.02;109964;1277;22153;-49
2023/05/05 06:47:49;;;;;;;7.40;3.60;;;;;;;22.71;42.52;101853.23;110246;1271;23054;-49
2023/05/05 06:50:16;;;;;;;4.40;2.60;;;;;;;22.79;42.41;101852.61;110339;1275;22233;-48
2023/05/05 06:52:43;;;;;;;4.00;2.40;;;;;;;22.88;42.62;101852.61;110291;1270;22413;-49
2023/05/05 06:55:10;;;;;;;3.60;2.50;;;;;;;22.97;42.65;101852.31;110332;1274;22390;-48
2023/05/05 06:57:37;;;;;;;5.00;2.60;;;;;;;23.10;42.33;101850.70;110497;1267;22299;-49
2023/05/05 07:00:08;;;;;;;3.30;2.70;;;;;;;23.25;42.01;101852.79;110498;1267;23169;-49
2023/05/05 07:02:36;;;;;;;3.20;2.60;;;;;;;23.48;41.86;101852.39;110262;1273;22305;-49
2023/05/05 07:05:03;;;;;;;3.30;2.10;;;;;;;23.72;41.63;101853.60;110456;1267;22842;-49
2023/05/05 07:07:31;;;;;;;2.20;2.00;;;;;;;23.88;41.06;101855.98;110416;1268;22365;-50
2023/05/05 07:09:58;;;;;;;5.30;2.80;;;;;;;24.00;40.51;101854.23;110472;1267;23068;-49
2023/05/05 07:12:32;;;;;;;4.10;2.70;;;;;;;24.06;40.40;101851.19;110417;1267;22356;-49
2023/05/05 07:14:59;;;;;;;3.50;2.60;;;;;;;23.97;40.25;101851.58;110083;1273;22451;-50
2023/05/05 07:17:35;;;;;;;3.20;2.50;;;;;;;23.79;40.63;101848.73;110537;1267;23046;-47
2023/05/05 07:20:02;;;;;;;3.70;2.20;;;;;;;23.60;40.98;101844.57;110417;1268;22387;-49
2023/05/05 07:22:29;;;;;;;2.30;2.10;;;;;;;23.47;41.16;101849.45;110513;1267;22404;-49
2023/05/05 07:24:56;;;;;;;3.10;2.40;;;;;;;23.45;41.61;101850.45;110507;1268;22382;-49
2023/05/05 07:27:23;;;;;;;3.70;2.40;;;;;;;23.54;41.44;101846.72;110443;1267;22923;-49
2023/05/05 07:29:50;;;;;;;3.30;2.50;;;;;;;23.52;41.24;101848.23;110477;1267;22304;-49
2023/05/05 07:32:17;;;;;;;3.00;2.30;;;;;;;23.45;41.72;101850.24;110405;1268;22369;-49
2023/05/05 07:34:45;;;;;;;4.20;2.50;;;;;;;23.41;41.77;101852.07;110574;1267;22149;-49
2023/05/05 07:37:12;;;;;;;2.80;2.10;;;;;;;23.34;41.92;101852.13;110321;1270;22998;-49
2023/05/05 07:39:39;;;;;;;5.40;2.00;;;;;;;23.23;42.30;101854.89;110397;1268;22726;-49
2023/05/05 07:42:06;;;;;;;2.60;2.10;;;;;;;23.14;42.35;101854.54;110424;1268;22769;-48
2023/05/05 07:44:33;;;;;;;2.50;1.90;;;;;;;23.10;42.48;101854.73;110512;1268;22104;-48
2023/05/05 07:47:00;;;;;;;3.20;1.90;;;;;;;23.04;42.07;101859.32;110455;1268;22190;-48
2023/05/05 07:49:27;;;;;;;3.00;2.30;;;;;;;22.95;42.35;101857.19;110534;1266;22909;-49
2023/05/05 07:51:55;;;;;;;2.70;1.90;;;;;;;22.88;41.81;101859.36;110476;1274;22267;-48
2023/05/05 07:54:22;;;;;;;2.30;2.10;;;;;;;22.81;41.03;101858.54;110245;1266;22415;-48
2023/05/05 07:56:49;;;;;;;4.40;2.50;;;;;;;22.74;41.25;101859.63;110468;1273;22207;-48
2023/05/05 07:59:16;;;;;;;2.60;2.10;;;;;;;22.72;41.17;101860.63;107950;1272;1003025;-49
2023/05/05 08:01:43;;;;;;;3.90;2.20;;;;;;;22.69;41.36;101855.83;110405;1269;22459;-49
2023/05/05 08:04:10;;;;;;;6.10;2.50;;;;;;;22.65;41.95;101858.15;110455;1269;22850;-49
2023/05/05 08:06:37;;;;;;;3.80;2.30;;;;;;;22.61;41.99;101863.66;110457;1268;22363;-49
2023/05/05 08:09:04;;;;;;;3.80;2.60;;;;;;;22.60;41.75;101864.77;110420;1273;23190;-48
2023/05/05 08:11:31;;;;;;;3.30;2.40;;;;;;;22.61;41.30;101866.29;110453;1269;22124;-48
2023/05/05 08:13:58;;;;;;;4.60;3.10;;;;;;;22.67;40.89;101870.27;110117;1267;22423;-49
2023/05/05 08:16:25;;;;;;;6.00;3.20;;;;;;;22.77;40.73;101864.94;110126;1273;22110;-49
2023/05/05 08:18:53;;;;;;;3.30;2.70;;;;;;;22.89;40.67;101866.56;110312;1270;22280;-48
2023/05/05 08:21:20;;;;;;;5.00;2.50;;;;;;;23.01;40.43;101862.17;110501;1268;22175;-48
2023/05/05 08:23:47;;;;;;;4.40;2.70;;;;;;;23.13;40.28;101865.57;110265;1271;22101;-49
2023/05/05 08:26:14;;;;;;;3.60;3.00;;;;;;;23.25;40.53;101868.21;110479;1268;22483;-49
2023/05/05 08:28:41;;;;;;;5.80;2.80;;;;;;;23.37;39.97;101871.79;110453;1268;23166;-49
2023/05/05 08:31:08;;;;;;;6.70;2.70;;;;;;;23.48;39.08;101873.29;110224;1271;22862;-48
2023/05/05 08:33:35;;;;;;;3.60;2.30;;;;;;;23.56;38.29;101872.11;110481;1268;22569;-48
2023/05/05 08:36:02;;;;;;;2.80;2.30;;;;;;;23.61;37.93;101871.97;110474;1268;22441;-50
2023/05/05 08:38:29;;;;;;;3.10;2.30;;;;;;;23.65;37.42;101875.99;110384;1270;23076;-48
2023/05/05 08:40:56;;;;;;;5.30;2.70;;;;;;;23.68;37.44;101877.05;110469;1269;22258;-49
2023/05/05 08:43:23;;;;;;;5.40;2.60;;;;;;;23.69;37.01;101879.50;110458;1275;22356;-48
2023/05/05 08:45:51;;;;;;;4.10;2.50;;;;;;;23.69;36.64;101876.11;110528;1269;22157;-49
2023/05/05 08:48:21;;;;;;;4.00;2.40;;;;;;;23.70;36.40;101877.47;110520;1267;22368;-49
2023/05/05 08:50:53;;;;;;;5.70;2.40;;;;;;;23.71;36.52;101881.66;110425;1271;22187;-48
2023/05/05 08:53:29;;;;;;;4.30;2.20;;;;;;;23.72;36.89;101879.82;110360;1271;22448;-48
2023/05/05 08:55:56;;;;;;;3.40;2.40;;;;;;;23.73;36.74;101883.33;110318;1271;22213;-49
2023/05/05 08:58:23;;;;;;;3.60;1.90;;;;;;;23.73;35.81;101881.73;110116;1274;22181;-48
2023/05/05 09:00:53;;;;;;;2.40;2.10;;;;;;;23.71;35.98;101881.67;110340;1274;22146;-49
2023/05/05 09:03:20;;;;;;;3.70;1.90;;;;;;;23.69;35.64;101882.50;110409;1264;22988;-49
2023/05/05 09:05:49;;;;;;;2.30;2.10;;;;;;;23.66;35.61;101884.77;110532;1266;23234;-48
2023/05/05 09:08:16;;;;;;;5.50;2.00;;;;;;;23.64;35.96;101886.70;109485;1268;1002376;-48
2023/05/05 09:10:44;;;;;;;6.20;2.30;;;;;;;23.63;36.30;101887.30;110407;1267;22234;-48
2023/05/05 09:13:11;;;;;;;3.20;2.00;;;;;;;23.63;35.83;101885.67;110513;1269;22264;-48
2023/05/05 09:15:48;;;;;;;4.80;2.00;;;;;;;23.65;35.86;101883.44;110415;1268;22441;-49
2023/05/05 09:18:15;;;;;;;4.40;2.10;;;;;;;23.65;35.46;101878.49;110543;1272;23138;-49
2023/05/05 09:20:42;;;;;;;3.10;2.30;;;;;;;23.62;35.69;101882.21;110456;1269;22140;-49
2023/05/05 09:23:13;;;;;;;2.60;1.90;;;;;;;23.57;35.87;101883.77;108956;1268;1002877;-49
2023/05/05 09:25:41;;;;;;;;;;;;;;;23.50;36.27;101881.31;110266;1274;22443;-49
2023/05/05 09:32:23;;;;;;;3.90;2.10;;;;;;;23.19;37.24;101886.09;104715;1292;560707;-48
2023/05/05 09:34:58;;;;;;;3.10;2.00;;;;;;;23.36;37.13;101886.52;106248;1282;25453;-48
2023/05/05 09:37:31;;;;;;;4.00;2.10;;;;;;;23.34;37.81;101887.73;106402;1282;22545;-48
2023/05/05 09:39:59;;;;;;;5.40;2.40;;;;;;;23.34;38.05;101889.31;106336;1282;22599;-48
2023/05/05 09:42:27;;;;;;;3.30;1.90;;;;;;;23.37;37.64;101891.25;106433;1284;22964;-48
2023/05/05 09:44:55;;;;;;;3.90;1.80;;;;;;;23.38;37.75;101889.98;106315;1280;249754;-49
2023/05/05 09:47:34;;;;;;;2.30;2.00;;;;;;;23.38;37.60;101880.95;106506;1273;26630;-49
2023/05/05 09:50:01;;;;;;;2.10;1.60;;;;;;;23.37;37.22;101882.55;106884;1269;22199;-48
2023/05/05 09:52:29;;;;;;;4.60;2.10;;;;;;;23.39;36.99;101883.73;107052;1273;25604;-48
2023/05/05 09:54:56;;;;;;;3.90;2.20;;;;;;;23.38;37.56;101878.13;106848;1271;23919;-49
2023/05/05 09:57:32;;;;;;;3.90;2.10;;;;;;;23.35;37.50;101875.25;106937;1275;25818;-48
2023/05/05 10:00:00;;;;;;;3.40;1.90;;;;;;;23.32;38.14;101869.07;106849;1270;25551;-47
2023/05/05 10:02:31;;;;;;;3.90;2.30;;;;;;;23.33;38.46;101872.41;106514;1273;24359;-48
2023/05/05 10:05:08;;;;;;;2.10;1.70;;;;;;;23.37;38.52;101870.90;106707;1276;25384;-48
2023/05/05 10:07:39;;;;;;;3.00;1.70;;;;;;;23.42;38.80;101863.21;107062;1270;22779;-48
2023/05/05 10:10:12;;;;;;;3.40;1.80;;;;;;;23.49;39.03;101862.25;107007;1273;25337;-48
2023/05/05 10:12:39;;;;;;;3.00;2.50;;;;;;;23.57;38.70;101863.02;106915;1274;25472;-48
2023/05/05 10:15:09;;;;;;;4.10;2.30;;;;;;;23.63;38.66;101860.73;106834;1271;23185;-49
2023/05/05 10:17:46;;;;;;;2.80;1.90;;;;;;;23.64;39.01;101861.89;107221;1273;25357;-47
2023/05/05 10:20:34;;;;;;;2.30;1.80;;;;;;;23.63;38.76;101862.82;106763;1276;22530;-48
2023/05/05 10:23:01;;;;;;;3.50;2.00;;;;;;;23.63;38.93;101863.73;106883;1278;25446;-48
2023/05/05 10:25:32;;;;;;;5.40;2.00;;;;;;;23.63;38.71;101862.32;107487;1269;22630;-48
2023/05/05 10:28:00;;;;;;;2.10;1.90;;;;;;;23.64;38.42;101860.64;106891;1277;22529;-48
2023/05/05 10:30:30;;;;;;;3.00;2.10;;;;;;;23.64;38.56;101859.02;106785;1273;24372;-48
2023/05/05 10:33:26;;;;;;;4.30;2.00;;;;;;;23.62;38.58;101855.27;106927;1273;24051;-48
2023/05/05 10:36:00;;;;;;;3.70;2.20;;;;;;;23.58;39.06;101855.86;107146;1270;22534;-48
2023/05/05 10:38:31;;;;;;;2.30;1.90;;;;;;;23.58;39.24;101854.81;107160;1275;23110;-47
2023/05/05 10:40:59;;;;;;;4.00;2.00;;;;;;;23.60;39.20;101855.02;106913;1276;22645;-48
2023/05/05 10:43:28;;;;;;;2.30;2.00;;;;;;;23.66;39.78;101855.80;106938;1275;24247;-48
2023/05/05 10:45:55;;;;;;;3.60;1.90;;;;;;;23.73;39.68;101854.45;106571;1275;25363;-48
2023/05/05 10:48:57;;;;;;;4.90;2.00;;;;;;;23.81;39.49;101851.30;106951;1272;22553;-48
2023/05/05 10:51:43;;;;;;;8.30;2.10;;;;;;;23.86;39.44;101851.88;107030;1272;22518;-48
2023/05/05 10:54:26;;;;;;;3.10;2.50;;;;;;;23.92;39.72;101849.04;107075;1271;26155;-49
2023/05/05 10:56:53;;;;;;;3.40;2.10;;;;;;;23.97;39.29;101845.02;106769;1270;22538;-48
2023/05/05 10:59:36;;;;;;;3.00;2.10;;;;;;;23.98;39.18;101844.91;107118;1270;23312;-48
2023/05/05 11:02:28;;;;;;;2.20;2.00;;;;;;;23.99;39.47;101845.78;106803;1267;22554;-49
2023/05/05 11:05:20;;;;;;;2.60;2.00;;;;;;;24.00;39.93;101843.05;107387;1265;22629;-48
2023/05/05 11:07:49;;;;;;;3.10;2.00;;;;;;;24.04;39.81;101839.30;106922;1270;22535;-48
2023/05/05 11:10:19;;;;;;;2.40;2.00;;;;;;;24.06;39.31;101836.65;106900;1274;24371;-48
2023/05/05 11:13:02;;;;;;;2.80;2.10;;;;;;;24.09;39.41;101837.40;106649;1277;24264;-48
2023/05/05 11:15:32;;;;;;;4.40;2.30;;;;;;;24.10;39.75;101837.69;106806;1257;23526;-48
2023/05/05 11:18:00;;;;;;;5.40;2.20;;;;;;;24.11;40.24;101831.23;107135;1257;25325;-48
2023/05/05 11:20:38;;;;;;;3.50;2.30;;;;;;;24.13;40.03;101833.95;106699;1272;22533;-47
2023/05/05 11:23:05;;;;;;;5.60;2.80;;;;;;;24.14;39.74;101836.53;106983;1273;22805;-47
2023/05/05 11:25:37;;;;;;;3.40;2.30;;;;;;;24.17;39.81;101832.11;106887;1269;22524;-47
2023/05/05 11:28:05;;;;;;;5.60;2.60;;;;;;;24.19;39.98;101831.44;106831;1269;25254;-48
2023/05/05 11:30:33;;;;;;;3.10;2.10;;;;;;;24.20;40.33;101834.39;106759;1270;24356;-47
2023/05/05 11:33:22;;;;;;;2.50;2.30;;;;;;;24.19;40.21;101833.35;107014;1273;22531;-49